METAR AND TAF INFORMATION
METAR FOR FZAA
ADDS - METARS form results

(1051 UTC 14 July 2020)
Data provider http://aviationweather.gov/metar/data/
 
METAR text: FZAA 141000Z 24010KT 6000 BKN020 25/18 Q1015 NOSIG
Conditions at: FZAA (KINSHASA/N'DJILI, CD) observed 1000 UTC 14 July 2020
Temperature: 25.0°C (77°F)
Dewpoint: 18.0°C (64°F) [RH = 65%]
Pressure (altimeter): 29.97 inches Hg (1015.0 mb)
Winds: from the WSW (240 degrees) at 12 MPH (10 knots; 5.1 m/s)
Visibility: 4 miles ( 6 km)
Ceiling: 2000 feet AGL
Clouds: broken clouds at 2000 feet AGL
Weather: no significant weather observed at this time

 AIRPORT MAP

 RUNWAY INFORMATION
Runway 06 Runway length 15420 ft Runway width 197 ft
Runway elevation 998 ft Runway displaced threshold 0 ft Runway heading 58
Runway 24 Runway length 15420 ft Runway width 197 ft
Runway elevation 998 ft Runway displaced threshold 0 ft Runway heading 238

 AIRPORT FREQUENCIES
Type A/G Name A/G Frequency 128.1 MHZ
Type APP Name APP Frequency 119.7 MHZ
Type GND Name GND Frequency 121.9 MHZ
Type TWR Name TWR Frequency 118.1 MHZ

 AIRPORT NEAR NAVIGATION AIDS
Type VOR-DME Name Ndjili Frequency 115000 KHZ
Type NDB Name Ndjili Frequency 340 KHZ